Time;durP1;ratioP1;P1;durP2;ratioP2;P2;SDS_P1;SDS_P2;PMS_P1;PMS_P2;Temp;Humidity;BMP_temperature;BMP_pressure;BME280_temperature;BME280_humidity;BME280_pressure;Samples;Min_cycle;Max_cycle;Signal;HPM_P1;HPM_P2
2024/02/14 00:02:25;;;;;;;4.00;1.47;;;;;;;;;;5076903;28;20423;-80
2024/02/14 00:04:51;;;;;;;5.70;1.17;;;;;;;;;;5094982;28;20406;-79
2024/02/14 00:07:17;;;;;;;3.70;1.60;;;;;;;;;;5076717;28;20422;-80
2024/02/14 00:09:43;;;;;;;2.60;1.10;;;;;;;;;;5100440;28;20438;-78
2024/02/14 00:12:11;;;;;;;3.30;0.87;;;;;;;;;;5114619;28;20923;-80
2024/02/14 00:14:37;;;;;;;3.40;1.43;;;;;;;;;;5115125;28;20468;-79
2024/02/14 00:17:03;;;;;;;2.87;1.30;;;;;;;;;;5115054;28;20561;-79
2024/02/14 00:19:29;;;;;;;2.60;0.70;;;;;;;;;;5114989;28;20418;-79
2024/02/14 00:21:55;;;;;;;2.27;1.67;;;;;;;;;;5114994;28;20415;-79
2024/02/14 00:24:22;;;;;;;4.83;2.00;;;;;;;;;;5114939;28;20937;-80
2024/02/14 00:26:49;;;;;;;4.53;1.77;;;;;;;;;;5096170;28;20450;-80
2024/02/14 00:29:14;;;;;;;3.53;1.63;;;;;;;;;;5114843;28;20411;-79
2024/02/14 00:31:42;;;;;;;3.23;1.33;;;;;;;;;;5114931;28;20414;-78
2024/02/14 00:34:12;;;;;;;2.97;1.23;;;;;;;;;;5114762;28;20463;-80
2024/02/14 00:36:38;;;;;;;4.33;1.20;;;;;;;;;;5114680;28;20466;-80
2024/02/14 00:39:04;;;;;;;3.80;1.07;;;;;;;;;;5114707;28;20415;-80
2024/02/14 00:41:30;;;;;;;3.93;1.67;;;;;;;;;;5114242;28;20907;-79
2024/02/14 00:43:56;;;;;;;4.83;1.50;;;;;;;;;;5114621;28;20410;-79
2024/02/14 00:46:22;;;;;;;2.13;1.07;;;;;;;;;;5114454;28;20411;-79
2024/02/14 00:48:48;;;;;;;2.97;1.27;;;;;;;;;;5114291;28;20482;-79
2024/02/14 00:51:14;;;;;;;2.87;0.90;;;;;;;;;;5114312;28;20492;-78
2024/02/14 00:53:40;;;;;;;1.97;0.60;;;;;;;;;;5114413;28;20450;-79
2024/02/14 00:56:06;;;;;;;5.13;1.67;;;;;;;;;;5113949;28;20518;-78
2024/02/14 00:58:32;;;;;;;6.20;2.13;;;;;;;;;;5114264;28;20411;-78
2024/02/14 01:00:58;;;;;;;2.07;1.13;;;;;;;;;;5114211;28;20477;-79
2024/02/14 01:03:24;;;;;;;1.60;0.53;;;;;;;;;;5114045;28;20418;-79
2024/02/14 01:05:50;;;;;;;1.90;0.90;;;;;;;;;;5114217;28;20507;-79
2024/02/14 01:08:17;;;;;;;4.17;0.97;;;;;;;;;;5095866;28;20503;-79
2024/02/14 01:10:43;;;;;;;6.70;1.17;;;;;;;;;;5115182;28;20407;-79
2024/02/14 01:13:12;;;;;;;3.70;1.13;;;;;;;;;;5096280;28;20410;-78
2024/02/14 01:15:41;;;;;;;2.30;1.20;;;;;;;;;;5113982;28;20466;-78
2024/02/14 01:18:07;;;;;;;6.30;1.10;;;;;;;;;;5095678;28;20428;-79
2024/02/14 01:20:33;;;;;;;1.57;1.20;;;;;;;;;;5113914;28;20972;-79
2024/02/14 01:22:59;;;;;;;3.17;1.23;;;;;;;;;;5113905;28;20175;-78
2024/02/14 01:25:26;;;;;;;2.90;1.47;;;;;;;;;;5113346;28;20911;-81
2024/02/14 01:27:52;;;;;;;4.30;0.63;;;;;;;;;;5113766;28;20820;-80
2024/02/14 01:30:19;;;;;;;3.60;1.23;;;;;;;;;;5113735;28;20450;-81
2024/02/14 01:32:45;;;;;;;2.40;1.37;;;;;;;;;;5113602;28;20408;-81
2024/02/14 01:35:10;;;;;;;3.63;1.30;;;;;;;;;;5113464;28;20549;-81
2024/02/14 01:37:46;;;;;;;1.83;1.40;;;;;;;;;;5113622;28;20827;-81
2024/02/14 01:40:12;;;;;;;2.67;1.00;;;;;;;;;;5113623;28;20391;-80
2024/02/14 01:42:38;;;;;;;5.27;1.73;;;;;;;;;;5113153;28;20496;-80
2024/02/14 01:45:04;;;;;;;2.20;0.90;;;;;;;;;;5113403;28;20877;-81
2024/02/14 01:47:32;;;;;;;2.90;1.53;;;;;;;;;;5094924;28;20463;-81
2024/02/14 01:49:58;;;;;;;2.60;1.00;;;;;;;;;;5113402;28;20411;-81
2024/02/14 01:52:24;;;;;;;2.00;1.13;;;;;;;;;;5113311;28;20754;-81
2024/02/14 01:54:49;;;;;;;5.40;2.13;;;;;;;;;;5113257;28;20402;-80
2024/02/14 01:57:15;;;;;;;4.57;1.10;;;;;;;;;;5112769;28;20491;-81
2024/02/14 01:59:41;;;;;;;3.83;1.40;;;;;;;;;;5113268;28;20399;-81
2024/02/14 02:02:09;;;;;;;3.20;1.77;;;;;;;;;;5112725;28;20941;-80
2024/02/14 02:04:35;;;;;;;2.50;1.27;;;;;;;;;;5113320;28;20976;-80
2024/02/14 02:07:01;;;;;;;5.20;1.30;;;;;;;;;;5095019;28;20423;-80
2024/02/14 02:09:27;;;;;;;3.80;1.50;;;;;;;;;;5113083;28;20846;-81
2024/02/14 02:11:56;;;;;;;8.03;2.60;;;;;;;;;;5112768;28;20407;-81
2024/02/14 02:14:22;;;;;;;4.30;1.40;;;;;;;;;;5113147;28;20494;-80
2024/02/14 02:16:49;;;;;;;3.57;2.17;;;;;;;;;;5113022;28;20525;-80
2024/02/14 02:19:15;;;;;;;2.83;1.50;;;;;;;;;;5094621;28;20744;-80
2024/02/14 02:21:49;;;;;;;4.13;1.70;;;;;;;;;;5112966;28;20476;-80
2024/02/14 02:24:15;;;;;;;3.23;1.57;;;;;;;;;;5112787;28;20405;-80
2024/02/14 02:26:41;;;;;;;4.30;1.50;;;;;;;;;;5112495;28;20407;-80
2024/02/14 02:29:07;;;;;;;3.03;0.87;;;;;;;;;;5112908;28;20737;-79
2024/02/14 02:31:33;;;;;;;2.00;0.90;;;;;;;;;;5094609;28;20913;-80
2024/02/14 02:33:59;;;;;;;3.17;1.47;;;;;;;;;;5112907;28;20419;-80
2024/02/14 02:36:29;;;;;;;3.43;1.13;;;;;;;;;;5112787;28;20834;-79
2024/02/14 02:38:55;;;;;;;4.43;2.00;;;;;;;;;;5112958;28;20957;-79
2024/02/14 02:41:21;;;;;;;1.50;0.67;;;;;;;;;;5112425;28;20502;-79
2024/02/14 02:43:49;;;;;;;3.73;1.30;;;;;;;;;;5099239;28;20406;-80
2024/02/14 02:46:15;;;;;;;6.73;3.50;;;;;;;;;;5091280;28;20429;-79
2024/02/14 02:48:41;;;;;;;1.23;1.00;;;;;;;;;;5092419;28;20514;-79
2024/02/14 02:51:07;;;;;;;7.70;1.50;;;;;;;;;;5100086;28;20427;-79
2024/02/14 02:53:35;;;;;;;3.27;1.83;;;;;;;;;;5101152;28;20887;-80
2024/02/14 02:56:00;;;;;;;4.73;1.53;;;;;;;;;;5094018;28;20490;-79
2024/02/14 02:58:26;;;;;;;2.40;1.13;;;;;;;;;;5099832;28;20424;-78
2024/02/14 03:00:55;;;;;;;3.00;1.20;;;;;;;;;;5101311;28;20424;-78
2024/02/14 03:03:21;;;;;;;2.60;1.10;;;;;;;;;;5099798;28;21132;-79
2024/02/14 03:05:48;;;;;;;4.17;1.50;;;;;;;;;;5089818;28;20429;-79
2024/02/14 03:08:15;;;;;;;2.80;1.90;;;;;;;;;;5101671;28;20418;-79
2024/02/14 03:10:42;;;;;;;2.00;1.23;;;;;;;;;;5102001;28;20912;-78
2024/02/14 03:13:11;;;;;;;3.80;2.00;;;;;;;;;;5103354;28;20413;-79
2024/02/14 03:15:37;;;;;;;4.30;1.97;;;;;;;;;;5106186;28;20446;-78
2024/02/14 03:18:07;;;;;;;3.97;1.90;;;;;;;;;;5104638;28;20419;-79
2024/02/14 03:20:33;;;;;;;3.53;1.30;;;;;;;;;;5105940;28;20500;-79
2024/02/14 03:22:59;;;;;;;4.80;1.83;;;;;;;;;;5106354;28;20502;-79
2024/02/14 03:25:26;;;;;;;3.40;1.90;;;;;;;;;;5112961;28;20405;-78
2024/02/14 03:27:53;;;;;;;4.53;1.67;;;;;;;;;;5116278;28;20429;-78
2024/02/14 03:30:20;;;;;;;4.70;2.47;;;;;;;;;;5116248;28;20409;-78
2024/02/14 03:32:48;;;;;;;5.50;2.57;;;;;;;;;;5116104;28;20415;-78
2024/02/14 03:35:14;;;;;;;2.63;1.90;;;;;;;;;;5116106;28;20767;-78
2024/02/14 03:37:47;;;;;;;2.87;1.20;;;;;;;;;;5116026;28;20417;-79
2024/02/14 03:40:13;;;;;;;3.57;1.47;;;;;;;;;;5115733;28;20440;-79
2024/02/14 03:42:40;;;;;;;5.17;2.47;;;;;;;;;;5115984;28;20410;-78
2024/02/14 03:45:07;;;;;;;3.77;2.30;;;;;;;;;;5115900;28;20794;-78
2024/02/14 03:47:33;;;;;;;3.67;1.90;;;;;;;;;;5115615;28;20811;-78
2024/02/14 03:49:59;;;;;;;4.60;1.63;;;;;;;;;;5097453;28;20415;-78
2024/02/14 03:52:26;;;;;;;2.90;1.63;;;;;;;;;;5109173;28;20950;-78
2024/02/14 03:54:52;;;;;;;5.17;2.50;;;;;;;;;;5097281;28;20415;-78
2024/02/14 03:57:21;;;;;;;3.87;1.80;;;;;;;;;;5115170;28;20476;-78
2024/02/14 03:59:47;;;;;;;3.20;1.47;;;;;;;;;;5115427;28;20455;-79
2024/02/14 04:02:13;;;;;;;3.30;2.50;;;;;;;;;;5115668;28;20413;-79
2024/02/14 04:04:39;;;;;;;3.37;2.30;;;;;;;;;;5115562;28;20414;-78
2024/02/14 04:07:05;;;;;;;5.70;2.83;;;;;;;;;;5115403;28;20404;-78
2024/02/14 04:09:33;;;;;;;7.70;2.93;;;;;;;;;;5115416;28;20402;-79
2024/02/14 04:11:59;;;;;;;3.90;1.70;;;;;;;;;;5114965;28;20498;-80
2024/02/14 04:14:25;;;;;;;4.27;1.87;;;;;;;;;;5115227;28;20425;-79
2024/02/14 04:16:51;;;;;;;3.30;2.30;;;;;;;;;;5115272;28;20801;-80
2024/02/14 04:19:17;;;;;;;2.60;1.67;;;;;;;;;;5115299;28;20413;-78
2024/02/14 04:21:43;;;;;;;5.23;2.00;;;;;;;;;;5115177;28;20410;-79
2024/02/14 04:24:09;;;;;;;3.30;1.73;;;;;;;;;;5114694;28;20414;-78
2024/02/14 04:26:35;;;;;;;3.17;1.10;;;;;;;;;;5114706;28;20411;-80
2024/02/14 04:29:01;;;;;;;5.10;2.30;;;;;;;;;;5114987;28;20403;-79
2024/02/14 04:31:29;;;;;;;4.23;1.63;;;;;;;;;;5114936;28;20422;-79
2024/02/14 04:33:55;;;;;;;4.93;2.20;;;;;;;;;;5114984;28;20413;-79
2024/02/14 04:36:22;;;;;;;4.33;2.60;;;;;;;;;;5114892;28;20483;-79
2024/02/14 04:38:49;;;;;;;3.07;2.50;;;;;;;;;;5114826;28;20404;-80
2024/02/14 04:41:21;;;;;;;6.40;1.90;;;;;;;;;;5114341;28;20426;-79
2024/02/14 04:43:47;;;;;;;9.43;2.67;;;;;;;;;;5114725;28;20446;-79
2024/02/14 04:46:13;;;;;;;4.40;2.57;;;;;;;;;;5114653;28;20424;-79
2024/02/14 04:48:39;;;;;;;4.20;2.10;;;;;;;;;;5114503;28;20877;-79
2024/02/14 04:51:05;;;;;;;5.37;2.60;;;;;;;;;;5114561;28;20911;-79
2024/02/14 04:53:31;;;;;;;4.43;1.70;;;;;;;;;;5114526;28;20497;-80
2024/02/14 04:55:57;;;;;;;3.20;2.20;;;;;;;;;;5114133;28;20884;-79
2024/02/14 04:58:23;;;;;;;5.40;2.33;;;;;;;;;;5114444;28;20434;-79
2024/02/14 05:00:50;;;;;;;3.37;2.67;;;;;;;;;;5114378;28;20414;-79
2024/02/14 05:03:17;;;;;;;3.47;2.27;;;;;;;;;;5114280;28;20424;-80
2024/02/14 05:05:43;;;;;;;5.30;2.00;;;;;;;;;;5114290;28;20762;-79
2024/02/14 05:08:09;;;;;;;6.50;2.53;;;;;;;;;;5114063;28;20476;-79
2024/02/14 05:10:35;;;;;;;3.30;1.70;;;;;;;;;;5112697;28;20772;-79
2024/02/14 05:13:01;;;;;;;6.63;3.07;;;;;;;;;;5114179;28;20486;-79
2024/02/14 05:15:30;;;;;;;4.80;2.33;;;;;;;;;;5113916;28;20999;-79
2024/02/14 05:17:58;;;;;;;5.97;2.50;;;;;;;;;;5114056;28;20422;-79
2024/02/14 05:20:24;;;;;;;2.87;1.27;;;;;;;;;;5113964;28;20402;-80
2024/02/14 05:22:50;;;;;;;5.60;2.80;;;;;;;;;;5113866;28;20408;-79
2024/02/14 05:25:18;;;;;;;4.43;2.87;;;;;;;;;;5113663;28;20764;-79
2024/02/14 05:27:46;;;;;;;3.30;2.10;;;;;;;;;;5113893;28;20472;-79
2024/02/14 05:30:12;;;;;;;10.10;3.60;;;;;;;;;;5113889;28;20589;-78
2024/02/14 05:32:39;;;;;;;5.00;2.40;;;;;;;;;;5113805;28;20512;-79
2024/02/14 05:35:05;;;;;;;4.57;2.63;;;;;;;;;;5113636;28;20413;-79
2024/02/14 05:37:31;;;;;;;5.87;3.33;;;;;;;;;;5112880;28;20419;-80
2024/02/14 05:39:58;;;;;;;4.40;1.73;;;;;;;;;;5113257;28;20423;-79
2024/02/14 05:42:23;;;;;;;4.13;2.20;;;;;;;;;;5110402;28;20457;-80
2024/02/14 05:44:49;;;;;;;5.00;3.30;;;;;;;;;;5113607;28;20451;-79
2024/02/14 05:47:16;;;;;;;5.20;2.10;;;;;;;;;;5095063;28;20911;-80
2024/02/14 05:49:42;;;;;;;7.37;2.93;;;;;;;;;;5113534;28;20420;-79
2024/02/14 05:52:08;;;;;;;3.37;2.30;;;;;;;;;;5103690;28;20849;-79
2024/02/14 05:54:34;;;;;;;4.70;2.67;;;;;;;;;;5108254;28;20443;-80
2024/02/14 05:57:04;;;;;;;4.00;3.00;;;;;;;;;;5113376;28;20860;-79
2024/02/14 05:59:30;;;;;;;4.97;3.00;;;;;;;;;;5113481;28;20800;-79
2024/02/14 06:01:56;;;;;;;4.80;3.27;;;;;;;;;;5104221;28;20769;-79
2024/02/14 06:04:25;;;;;;;7.03;3.00;;;;;;;;;;5094824;28;20410;-79
2024/02/14 06:06:51;;;;;;;6.07;3.67;;;;;;;;;;5103946;28;20420;-79
2024/02/14 06:09:16;;;;;;;4.40;1.50;;;;;;;;;;5103364;28;20889;-80
2024/02/14 06:11:44;;;;;;;8.33;3.33;;;;;;;;;;5093662;28;20415;-80
2024/02/14 06:14:10;;;;;;;5.50;2.87;;;;;;;;;;5096891;28;20446;-80
2024/02/14 06:16:35;;;;;;;4.80;2.80;;;;;;;;;;5103549;28;21025;-80
2024/02/14 06:19:04;;;;;;;5.00;2.57;;;;;;;;;;5101606;28;20407;-79
2024/02/14 06:21:30;;;;;;;5.73;3.93;;;;;;;;;;5102170;28;20901;-80
2024/02/14 06:23:58;;;;;;;5.30;4.00;;;;;;;;;;5111461;28;20467;-80
2024/02/14 06:26:24;;;;;;;4.03;2.80;;;;;;;;;;5112100;28;20408;-80
2024/02/14 06:28:54;;;;;;;6.50;4.27;;;;;;;;;;5112166;28;20939;-79
2024/02/14 06:31:20;;;;;;;6.03;3.87;;;;;;;;;;5112942;28;20497;-80
2024/02/14 06:33:46;;;;;;;3.83;3.03;;;;;;;;;;5094767;28;20976;-80
2024/02/14 06:36:12;;;;;;;5.50;2.97;;;;;;;;;;5112878;28;20474;-81
2024/02/14 06:38:47;;;;;;;7.20;3.27;;;;;;;;;;5112742;28;20404;-80
2024/02/14 06:41:13;;;;;;;5.37;3.07;;;;;;;;;;5112548;28;20511;-80
2024/02/14 06:43:39;;;;;;;6.90;4.40;;;;;;;;;;5112833;28;20435;-79
2024/02/14 06:46:08;;;;;;;5.20;2.97;;;;;;;;;;5112854;28;20910;-79
2024/02/14 06:48:34;;;;;;;5.77;3.70;;;;;;;;;;5096918;28;21011;-79
2024/02/14 06:51:00;;;;;;;7.00;3.57;;;;;;;;;;5116791;28;20445;-79
2024/02/14 06:53:26;;;;;;;5.07;3.00;;;;;;;;;;5116833;28;20502;-78
2024/02/14 06:55:51;;;;;;;5.30;4.17;;;;;;;;;;5116386;28;20455;-78
2024/02/14 06:58:17;;;;;;;5.47;3.90;;;;;;;;;;5116774;28;20478;-78
2024/02/14 07:00:44;;;;;;;7.07;3.97;;;;;;;;;;5116706;28;20406;-78
2024/02/14 07:03:10;;;;;;;5.50;3.40;;;;;;;;;;5116677;28;20415;-79
2024/02/14 07:05:36;;;;;;;10.03;5.73;;;;;;;;;;5116596;28;20436;-78
2024/02/14 07:08:02;;;;;;;8.87;7.90;;;;;;;;;;5116609;28;20402;-78
2024/02/14 07:10:28;;;;;;;9.80;5.97;;;;;;;;;;5116281;28;20414;-79
2024/02/14 07:12:53;;;;;;;4.40;3.80;;;;;;;;;;5116510;28;20401;-79
2024/02/14 07:15:20;;;;;;;7.00;4.03;;;;;;;;;;5116581;28;20408;-78
2024/02/14 07:17:45;;;;;;;9.10;4.63;;;;;;;;;;5116447;28;20437;-78
2024/02/14 07:20:12;;;;;;;6.17;4.30;;;;;;;;;;5116379;28;20414;-79
2024/02/14 07:22:38;;;;;;;9.60;4.87;;;;;;;;;;5116347;28;20979;-78
2024/02/14 07:25:04;;;;;;;9.83;6.73;;;;;;;;;;5116003;28;20493;-79
2024/02/14 07:27:31;;;;;;;11.10;9.03;;;;;;;;;;5116340;28;20967;-77
2024/02/14 07:29:57;;;;;;;11.30;9.30;;;;;;;;;;5116342;28;20774;-77
2024/02/14 07:32:23;;;;;;;14.67;11.13;;;;;;;;;;5116232;28;20408;-78
2024/02/14 07:34:49;;;;;;;26.53;21.00;;;;;;;;;;5116198;28;20412;-80
2024/02/14 07:37:18;;;;;;;11.40;9.67;;;;;;;;;;5116186;28;20822;-80
2024/02/14 07:39:44;;;;;;;11.30;7.13;;;;;;;;;;5115868;28;20489;-79
2024/02/14 07:42:10;;;;;;;7.80;7.00;;;;;;;;;;5116027;28;20499;-79
2024/02/14 07:44:36;;;;;;;7.37;5.17;;;;;;;;;;5116078;28;20951;-80
2024/02/14 07:47:02;;;;;;;7.80;5.63;;;;;;;;;;5115654;28;20456;-80
2024/02/14 07:49:28;;;;;;;10.03;7.83;;;;;;;;;;5097755;28;20799;-81
2024/02/14 07:51:54;;;;;;;8.43;6.37;;;;;;;;;;5115869;28;20447;-81
2024/02/14 07:54:20;;;;;;;7.37;4.17;;;;;;;;;;5097465;28;20889;-81
2024/02/14 07:56:46;;;;;;;8.20;6.60;;;;;;;;;;5115758;28;20973;-81
2024/02/14 07:59:12;;;;;;;9.77;5.97;;;;;;;;;;5114890;28;20917;-81
2024/02/14 08:01:38;;;;;;;6.67;6.00;;;;;;;;;;5115710;28;20420;-80
2024/02/14 08:04:04;;;;;;;9.00;6.30;;;;;;;;;;5115734;28;20476;-78
2024/02/14 08:06:30;;;;;;;10.80;7.43;;;;;;;;;;5115761;28;20407;-80
2024/02/14 08:09:01;;;;;;;6.23;5.00;;;;;;;;;;5097911;28;20507;-80
2024/02/14 08:11:27;;;;;;;9.60;5.30;;;;;;;;;;5097029;28;20417;-80
2024/02/14 08:13:53;;;;;;;9.03;5.90;;;;;;;;;;5115614;28;20927;-80
2024/02/14 08:16:19;;;;;;;7.33;5.13;;;;;;;;;;5115599;28;20472;-80
2024/02/14 08:18:46;;;;;;;7.57;5.93;;;;;;;;;;5115668;28;20408;-81
2024/02/14 08:21:12;;;;;;;7.67;6.53;;;;;;;;;;5097641;28;20450;-80
2024/02/14 08:23:41;;;;;;;19.07;10.60;;;;;;;;;;5115522;28;20428;-79
2024/02/14 08:26:11;;;;;;;43.30;29.40;;;;;;;;;;5115062;28;20415;-78
2024/02/14 08:28:40;;;;;;;71.00;45.60;;;;;;;;;;5115066;28;20400;-79
2024/02/14 08:31:12;;;;;;;19.43;14.37;;;;;;;;;;5115200;28;20412;-80
2024/02/14 08:33:38;;;;;;;13.30;10.10;;;;;;;;;;5114913;28;20427;-79
2024/02/14 08:36:04;;;;;;;18.57;13.60;;;;;;;;;;5114894;28;20476;-80
2024/02/14 08:38:30;;;;;;;22.50;14.67;;;;;;;;;;5114788;28;20935;-79
2024/02/14 08:40:57;;;;;;;12.23;8.63;;;;;;;;;;5114453;28;20445;-80
2024/02/14 08:43:25;;;;;;;8.23;5.13;;;;;;;;;;5114771;28;20429;-79
2024/02/14 08:45:51;;;;;;;15.57;10.40;;;;;;;;;;5114775;28;20401;-79
2024/02/14 08:48:17;;;;;;;5.70;3.13;;;;;;;;;;5114490;28;20439;-80
2024/02/14 08:50:43;;;;;;;10.10;8.07;;;;;;;;;;5114582;28;20428;-79
2024/02/14 08:53:09;;;;;;;5.73;4.17;;;;;;;;;;5114533;28;20398;-79
2024/02/14 08:55:37;;;;;;;12.17;9.87;;;;;;;;;;5114040;28;20548;-79
2024/02/14 08:58:03;;;;;;;11.60;9.10;;;;;;;;;;5114543;28;20479;-78
2024/02/14 09:00:30;;;;;;;7.37;5.77;;;;;;;;;;5114326;28;20405;-77
2024/02/14 09:02:56;;;;;;;7.60;6.00;;;;;;;;;;5114437;28;20409;-79
2024/02/14 09:05:22;;;;;;;7.73;5.00;;;;;;;;;;5114345;28;20411;-79
2024/02/14 09:07:51;;;;;;;5.40;3.97;;;;;;;;;;5114254;28;20422;-77
2024/02/14 09:10:17;;;;;;;5.43;3.33;;;;;;;;;;5113817;28;20400;-79
2024/02/14 09:12:43;;;;;;;6.63;3.50;;;;;;;;;;5114186;28;20505;-79
2024/02/14 09:15:11;;;;;;;5.47;4.17;;;;;;;;;;5114339;28;20771;-77
2024/02/14 09:17:38;;;;;;;4.30;3.90;;;;;;;;;;5114055;28;20558;-78
2024/02/14 09:20:06;;;;;;;4.37;2.60;;;;;;;;;;5095859;28;20424;-78
2024/02/14 09:22:33;;;;;;;5.03;3.60;;;;;;;;;;5114037;28;20474;-79
2024/02/14 09:24:59;;;;;;;5.30;3.80;;;;;;;;;;5113502;28;20409;-78
2024/02/14 09:27:25;;;;;;;8.00;3.80;;;;;;;;;;5113840;28;20415;-76
2024/02/14 09:29:51;;;;;;;5.23;3.70;;;;;;;;;;5113893;28;20776;-79
2024/02/14 09:32:17;;;;;;;6.10;3.20;;;;;;;;;;5113824;28;20410;-79
2024/02/14 09:34:45;;;;;;;2.43;1.97;;;;;;;;;;5113929;28;20424;-77
2024/02/14 09:37:11;;;;;;;2.90;1.80;;;;;;;;;;5113726;28;20551;-76
2024/02/14 09:39:37;;;;;;;3.70;2.70;;;;;;;;;;5113338;28;20876;-78
2024/02/14 09:42:07;;;;;;;5.23;3.50;;;;;;;;;;5113714;28;20405;-79
2024/02/14 09:44:38;;;;;;;3.10;2.80;;;;;;;;;;5113636;28;20401;-78
2024/02/14 09:47:05;;;;;;;4.97;2.60;;;;;;;;;;5113438;28;20441;-79
2024/02/14 09:49:32;;;;;;;2.87;1.90;;;;;;;;;;5113521;28;20417;-78
2024/02/14 09:51:58;;;;;;;3.70;2.20;;;;;;;;;;5113462;28;20910;-78
2024/02/14 09:54:24;;;;;;;3.60;2.30;;;;;;;;;;5113129;28;20415;-79
2024/02/14 09:56:53;;;;;;;4.80;3.20;;;;;;;;;;5113390;28;20964;-78
2024/02/14 09:59:23;;;;;;;5.87;4.30;;;;;;;;;;5113492;28;20973;-80
2024/02/14 10:01:51;;;;;;;5.80;4.13;;;;;;;;;;5113422;28;20493;-79
2024/02/14 10:04:18;;;;;;;3.53;2.30;;;;;;;;;;5113359;28;20410;-78
2024/02/14 10:06:44;;;;;;;2.33;1.30;;;;;;;;;;5113340;28;20419;-77
2024/02/14 10:09:13;;;;;;;3.93;2.20;;;;;;;;;;5112898;28;20414;-77
2024/02/14 10:11:40;;;;;;;2.33;1.07;;;;;;;;;;5113171;28;20429;-78
2024/02/14 10:14:15;;;;;;;3.13;1.50;;;;;;;;;;5113211;28;20509;-79
2024/02/14 10:16:45;;;;;;;2.77;1.43;;;;;;;;;;5113245;28;21056;-80
2024/02/14 10:19:15;;;;;;;2.57;1.73;;;;;;;;;;5095559;28;20410;-79
2024/02/14 10:21:42;;;;;;;2.10;1.13;;;;;;;;;;5095110;28;20430;-79
2024/02/14 10:24:10;;;;;;;4.23;1.20;;;;;;;;;;5101150;28;20418;-81
2024/02/14 10:26:39;;;;;;;2.47;1.53;;;;;;;;;;5120237;28;20420;-80
2024/02/14 10:29:08;;;;;;;2.20;1.80;;;;;;;;;;5120113;28;20407;-79
2024/02/14 10:31:34;;;;;;;1.87;1.20;;;;;;;;;;5120120;28;20826;-80
2024/02/14 10:34:01;;;;;;;1.93;1.40;;;;;;;;;;5117760;28;20798;-79
2024/02/14 10:36:27;;;;;;;1.93;1.43;;;;;;;;;;5101797;28;20925;-81
2024/02/14 10:38:59;;;;;;;2.13;1.03;;;;;;;;;;5119577;28;20798;-79
2024/02/14 10:41:31;;;;;;;1.50;0.70;;;;;;;;;;5120180;28;20415;-79
2024/02/14 10:44:00;;;;;;;2.10;1.30;;;;;;;;;;5120017;28;20410;-80
2024/02/14 10:46:33;;;;;;;2.23;0.70;;;;;;;;;;5101796;28;20410;-80
2024/02/14 10:49:02;;;;;;;2.70;1.00;;;;;;;;;;5120094;28;20420;-80
2024/02/14 10:51:31;;;;;;;3.30;0.63;;;;;;;;;;5101687;28;20501;-80
2024/02/14 10:53:59;;;;;;;2.00;1.07;;;;;;;;;;5119445;28;20436;-79
2024/02/14 10:56:28;;;;;;;3.50;1.20;;;;;;;;;;5119852;28;20474;-80
2024/02/14 10:58:58;;;;;;;3.10;1.10;;;;;;;;;;5084647;28;20766;-79
2024/02/14 11:01:26;;;;;;;1.53;0.63;;;;;;;;;;5119824;28;20418;-79
2024/02/14 11:03:53;;;;;;;1.40;0.90;;;;;;;;;;5119467;28;20529;-76
2024/02/14 11:06:19;;;;;;;1.83;1.13;;;;;;;;;;5119254;28;20427;-77
2024/02/14 11:09:10;;;;;;;2.37;1.13;;;;;;;;;;5119144;28;20740;-77
2024/02/14 11:11:37;;;;;;;2.50;1.17;;;;;;;;;;5119135;28;20173;-77
2024/02/14 11:14:03;;;;;;;1.90;1.10;;;;;;;;;;5119284;28;20404;-77
2024/02/14 11:16:32;;;;;;;2.27;1.20;;;;;;;;;;5119300;28;20484;-76
2024/02/14 11:19:08;;;;;;;2.43;1.30;;;;;;;;;;5101036;28;20479;-78
2024/02/14 11:21:55;;;;;;;2.27;1.37;;;;;;;;;;5119410;28;20397;-79
2024/02/14 11:24:27;;;;;;;2.60;0.63;;;;;;;;;;5099847;28;20749;-77
2024/02/14 11:26:55;;;;;;;2.73;1.13;;;;;;;;;;5110223;28;20462;-78
2024/02/14 11:29:21;;;;;;;3.60;1.17;;;;;;;;;;5082030;28;20419;-77
2024/02/14 11:31:48;;;;;;;2.97;1.77;;;;;;;;;;5119583;28;20441;-77
2024/02/14 11:34:14;;;;;;;4.20;2.30;;;;;;;;;;5116871;28;20424;-77
2024/02/14 11:36:44;;;;;;;3.93;2.03;;;;;;;;;;5116253;28;20574;-77
2024/02/14 11:39:14;;;;;;;4.00;2.00;;;;;;;;;;5115973;28;20491;-77
2024/02/14 11:41:42;;;;;;;3.57;2.00;;;;;;;;;;5115660;28;20400;-78
2024/02/14 11:44:08;;;;;;;3.30;2.07;;;;;;;;;;5115838;28;20497;-77
2024/02/14 11:46:37;;;;;;;3.93;2.50;;;;;;;;;;5115984;28;20402;-77
2024/02/14 11:49:04;;;;;;;5.30;2.90;;;;;;;;;;5097722;28;20411;-78
2024/02/14 11:51:31;;;;;;;4.53;2.30;;;;;;;;;;5098092;28;20929;-77
2024/02/14 11:54:04;;;;;;;3.77;3.27;;;;;;;;;;5115763;28;20873;-78
2024/02/14 11:56:37;;;;;;;4.40;2.47;;;;;;;;;;5115876;28;20540;-78
2024/02/14 11:59:04;;;;;;;4.33;2.10;;;;;;;;;;5115659;28;20403;-79
2024/02/14 12:01:34;;;;;;;3.47;1.80;;;;;;;;;;5115561;28;20471;-81
2024/02/14 12:04:03;;;;;;;3.40;1.80;;;;;;;;;;5115375;28;20407;-78
2024/02/14 12:06:36;;;;;;;2.90;1.60;;;;;;;;;;5115461;28;20753;-78
2024/02/14 12:09:05;;;;;;;2.77;1.80;;;;;;;;;;5114790;28;20439;-78
2024/02/14 12:11:38;;;;;;;3.60;2.60;;;;;;;;;;5115307;28;20514;-78
2024/02/14 12:14:05;;;;;;;3.53;2.00;;;;;;;;;;5115461;28;20417;-78
2024/02/14 12:16:32;;;;;;;4.33;2.00;;;;;;;;;;5105869;28;20560;-77
2024/02/14 12:19:11;;;;;;;4.20;2.30;;;;;;;;;;5104478;28;20443;-79
2024/02/14 12:21:37;;;;;;;6.13;3.03;;;;;;;;;;5105689;28;20488;-78
2024/02/14 12:24:15;;;;;;;3.70;2.60;;;;;;;;;;5096299;28;20419;-81
2024/02/14 12:26:42;;;;;;;6.30;2.53;;;;;;;;;;5115059;28;20412;-80
2024/02/14 12:29:09;;;;;;;5.97;2.40;;;;;;;;;;5108546;28;20463;-79
2024/02/14 12:31:36;;;;;;;5.17;3.50;;;;;;;;;;5114898;28;20489;-79
2024/02/14 12:34:04;;;;;;;4.47;2.20;;;;;;;;;;5096285;28;20417;-80
2024/02/14 12:36:30;;;;;;;4.10;2.50;;;;;;;;;;5115064;28;20471;-79
2024/02/14 12:38:56;;;;;;;5.77;3.70;;;;;;;;;;5114373;28;20452;-79
2024/02/14 12:41:33;;;;;;;7.00;3.67;;;;;;;;;;5114764;28;20429;-78
2024/02/14 12:44:02;;;;;;;4.77;3.10;;;;;;;;;;5114824;28;20442;-80
2024/02/14 12:46:29;;;;;;;6.80;3.90;;;;;;;;;;5114321;28;20738;-78
2024/02/14 12:48:56;;;;;;;6.30;4.77;;;;;;;;;;5114613;28;20419;-79
2024/02/14 12:51:22;;;;;;;5.50;3.30;;;;;;;;;;5114351;28;20427;-79
2024/02/14 12:53:48;;;;;;;7.80;4.70;;;;;;;;;;5112131;28;20419;-79
2024/02/14 12:56:14;;;;;;;6.77;4.97;;;;;;;;;;5114390;28;20216;-79
2024/02/14 12:58:40;;;;;;;7.60;6.23;;;;;;;;;;5114239;28;20620;-79
2024/02/14 13:01:06;;;;;;;10.73;6.30;;;;;;;;;;5114352;28;20427;-79
2024/02/14 13:03:33;;;;;;;6.90;5.27;;;;;;;;;;5114287;28;20416;-79
2024/02/14 13:05:59;;;;;;;8.73;5.47;;;;;;;;;;5095973;28;20452;-79
2024/02/14 13:08:25;;;;;;;10.10;7.37;;;;;;;;;;5109077;28;20414;-79
2024/02/14 13:10:51;;;;;;;9.53;6.20;;;;;;;;;;5108703;28;20446;-78
2024/02/14 13:13:17;;;;;;;9.60;5.97;;;;;;;;;;5114675;28;20171;-79
2024/02/14 13:15:46;;;;;;;9.33;5.30;;;;;;;;;;5114121;28;20488;-79
2024/02/14 13:18:12;;;;;;;6.83;4.60;;;;;;;;;;5101114;28;20510;-80
2024/02/14 13:20:38;;;;;;;8.03;5.17;;;;;;;;;;5096001;28;20462;-78
2024/02/14 13:23:08;;;;;;;9.60;4.73;;;;;;;;;;5114545;28;20419;-79
2024/02/14 13:25:33;;;;;;;8.30;4.80;;;;;;;;;;5113670;28;20460;-79
2024/02/14 13:27:59;;;;;;;6.53;4.03;;;;;;;;;;5113906;28;20412;-80
2024/02/14 13:30:25;;;;;;;5.87;4.07;;;;;;;;;;5114111;28;20412;-79
2024/02/14 13:32:51;;;;;;;7.27;4.63;;;;;;;;;;5114317;28;20407;-79
2024/02/14 13:35:18;;;;;;;5.83;4.00;;;;;;;;;;5107094;28;20463;-79
2024/02/14 13:37:44;;;;;;;8.50;5.10;;;;;;;;;;5095087;28;20487;-77
2024/02/14 13:40:14;;;;;;;10.13;4.80;;;;;;;;;;5094643;28;20415;-78
2024/02/14 13:42:40;;;;;;;7.23;4.20;;;;;;;;;;5113379;28;20408;-78
2024/02/14 13:45:10;;;;;;;6.17;3.73;;;;;;;;;;5095045;28;20455;-79
2024/02/14 13:47:38;;;;;;;7.20;5.03;;;;;;;;;;5113322;28;20456;-78
2024/02/14 13:50:05;;;;;;;6.47;4.83;;;;;;;;;;5112742;28;20428;-79
2024/02/14 13:52:31;;;;;;;6.43;5.20;;;;;;;;;;5095405;28;20839;-79
2024/02/14 13:54:57;;;;;;;5.63;4.37;;;;;;;;;;5113067;28;20408;-78
2024/02/14 13:57:23;;;;;;;7.10;4.90;;;;;;;;;;5094416;28;20535;-79
2024/02/14 13:59:49;;;;;;;8.97;4.90;;;;;;;;;;5113444;28;20413;-78
2024/02/14 14:02:15;;;;;;;5.90;4.90;;;;;;;;;;5113440;28;20408;-77
2024/02/14 14:04:41;;;;;;;5.73;4.00;;;;;;;;;;5094325;28;20417;-78
2024/02/14 14:07:08;;;;;;;8.43;4.80;;;;;;;;;;5112926;28;20412;-79
2024/02/14 14:09:35;;;;;;;9.03;5.03;;;;;;;;;;5112974;28;20408;-78
2024/02/14 14:12:01;;;;;;;8.33;5.47;;;;;;;;;;5111168;28;20833;-77
2024/02/14 14:14:28;;;;;;;6.87;4.73;;;;;;;;;;5112177;28;20445;-79
2024/02/14 14:16:54;;;;;;;7.40;5.40;;;;;;;;;;5112950;28;20463;-78
2024/02/14 14:19:20;;;;;;;6.30;4.10;;;;;;;;;;5112978;28;20743;-79
2024/02/14 14:21:46;;;;;;;7.67;4.90;;;;;;;;;;5112941;28;20449;-78
2024/02/14 14:24:12;;;;;;;6.57;4.43;;;;;;;;;;5112559;28;20425;-77
2024/02/14 14:26:38;;;;;;;8.80;4.87;;;;;;;;;;5112976;28;20427;-78
2024/02/14 14:29:04;;;;;;;6.43;5.23;;;;;;;;;;5094719;28;20425;-79
2024/02/14 14:31:31;;;;;;;6.33;4.87;;;;;;;;;;5113068;28;20414;-78
2024/02/14 14:33:57;;;;;;;5.57;3.90;;;;;;;;;;5112967;28;20410;-78
2024/02/14 14:36:23;;;;;;;5.93;4.03;;;;;;;;;;5112689;28;20475;-79
2024/02/14 14:38:48;;;;;;;5.97;4.53;;;;;;;;;;5112543;28;20408;-78
2024/02/14 14:41:14;;;;;;;5.67;4.83;;;;;;;;;;5112408;28;20412;-78